Wildhorse Mesa, Colorado
Current Conditions -  °F | °C
As of 6:52 AM on Sunday 21 Dec 2014 (Local Time) from KALS Reporting Station
Clear Clear  
Wind Chill: 10°   Ceiling: Unl
Heat Index: 10°   Visibility: 10mi
Dew Point:   Wind: 3mph
Humidity: 84%   Direction: 140°SE
Pressure: 29.96"   Gusts: NA
Location:  37.0838°N, 105.58°W
Report Text: KALS 211352Z AUTO 14003KT 10SM CLR M12/M14 A2996 RMK AO2 SLP202 T11221144
Loading
Personal Weather Stations






























Interactive Weather Map New forecast layout! Learn more

10-Day Weather Forecast

Advertisements
Track Severe Weather on mobile